sensor_id;sensor_type;location;lat;lon;timestamp;P1;durP1;ratioP1;P2;durP2;ratioP2
46355;SDS011;32066;49.474;11.106;2023-05-10T00:01:43;7.03;;;4.40;;
46355;SDS011;32066;49.474;11.106;2023-05-10T00:04:11;7.63;;;4.80;;
46355;SDS011;32066;49.474;11.106;2023-05-10T00:06:40;7.93;;;4.60;;
46355;SDS011;32066;49.474;11.106;2023-05-10T00:09:11;9.60;;;5.35;;
46355;SDS011;32066;49.474;11.106;2023-05-10T00:11:40;8.20;;;4.72;;
46355;SDS011;32066;49.474;11.106;2023-05-10T00:14:09;7.47;;;5.20;;
46355;SDS011;32066;49.474;11.106;2023-05-10T00:16:37;7.72;;;5.38;;
46355;SDS011;32066;49.474;11.106;2023-05-10T00:19:06;6.57;;;4.82;;
46355;SDS011;32066;49.474;11.106;2023-05-10T00:21:35;7.45;;;5.00;;
46355;SDS011;32066;49.474;11.106;2023-05-10T00:24:04;8.10;;;5.45;;
46355;SDS011;32066;49.474;11.106;2023-05-10T00:26:35;8.00;;;5.70;;
46355;SDS011;32066;49.474;11.106;2023-05-10T00:29:04;10.27;;;5.50;;
46355;SDS011;32066;49.474;11.106;2023-05-10T00:31:33;7.82;;;5.28;;
46355;SDS011;32066;49.474;11.106;2023-05-10T00:34:01;9.30;;;5.95;;
46355;SDS011;32066;49.474;11.106;2023-05-10T00:36:31;7.63;;;5.40;;
46355;SDS011;32066;49.474;11.106;2023-05-10T00:38:59;8.00;;;5.60;;
46355;SDS011;32066;49.474;11.106;2023-05-10T00:41:28;9.07;;;6.10;;
46355;SDS011;32066;49.474;11.106;2023-05-10T00:44:01;7.60;;;5.95;;
46355;SDS011;32066;49.474;11.106;2023-05-10T00:46:29;8.27;;;6.38;;
46355;SDS011;32066;49.474;11.106;2023-05-10T00:48:58;9.60;;;5.97;;
46355;SDS011;32066;49.474;11.106;2023-05-10T00:51:28;7.68;;;5.75;;
46355;SDS011;32066;49.474;11.106;2023-05-10T00:53:58;7.65;;;5.50;;
46355;SDS011;32066;49.474;11.106;2023-05-10T00:56:26;9.50;;;6.53;;
46355;SDS011;32066;49.474;11.106;2023-05-10T00:58:55;11.32;;;6.38;;
46355;SDS011;32066;49.474;11.106;2023-05-10T01:01:27;10.38;;;6.43;;
46355;SDS011;32066;49.474;11.106;2023-05-10T01:03:56;8.52;;;6.43;;
46355;SDS011;32066;49.474;11.106;2023-05-10T01:06:25;8.85;;;6.18;;
46355;SDS011;32066;49.474;11.106;2023-05-10T01:08:54;11.88;;;6.63;;
46355;SDS011;32066;49.474;11.106;2023-05-10T01:11:23;10.63;;;7.45;;
46355;SDS011;32066;49.474;11.106;2023-05-10T01:13:54;10.07;;;6.63;;
46355;SDS011;32066;49.474;11.106;2023-05-10T01:16:27;8.77;;;6.35;;
46355;SDS011;32066;49.474;11.106;2023-05-10T01:18:57;8.85;;;6.43;;
46355;SDS011;32066;49.474;11.106;2023-05-10T01:21:27;9.70;;;6.57;;
46355;SDS011;32066;49.474;11.106;2023-05-10T01:24:14;9.30;;;7.30;;
46355;SDS011;32066;49.474;11.106;2023-05-10T01:30:28;7.57;;;6.35;;
46355;SDS011;32066;49.474;11.106;2023-05-10T01:33:29;9.02;;;6.80;;
46355;SDS011;32066;49.474;11.106;2023-05-10T01:36:02;8.88;;;6.55;;
46355;SDS011;32066;49.474;11.106;2023-05-10T01:38:38;9.02;;;6.82;;
46355;SDS011;32066;49.474;11.106;2023-05-10T01:41:13;9.35;;;6.80;;
46355;SDS011;32066;49.474;11.106;2023-05-10T01:43:48;9.68;;;6.90;;
46355;SDS011;32066;49.474;11.106;2023-05-10T01:46:24;9.90;;;7.13;;
46355;SDS011;32066;49.474;11.106;2023-05-10T01:49:01;11.25;;;6.82;;
46355;SDS011;32066;49.474;11.106;2023-05-10T01:51:38;9.65;;;7.32;;
46355;SDS011;32066;49.474;11.106;2023-05-10T01:54:13;9.07;;;6.45;;
46355;SDS011;32066;49.474;11.106;2023-05-10T01:56:44;10.52;;;7.25;;
46355;SDS011;32066;49.474;11.106;2023-05-10T01:59:19;10.63;;;6.78;;
46355;SDS011;32066;49.474;11.106;2023-05-10T02:01:48;9.63;;;6.70;;
46355;SDS011;32066;49.474;11.106;2023-05-10T02:04:21;8.25;;;6.20;;
46355;SDS011;32066;49.474;11.106;2023-05-10T02:06:51;11.80;;;7.03;;
46355;SDS011;32066;49.474;11.106;2023-05-10T02:09:21;9.93;;;6.90;;
46355;SDS011;32066;49.474;11.106;2023-05-10T02:11:53;9.65;;;7.28;;
46355;SDS011;32066;49.474;11.106;2023-05-10T02:14:23;10.02;;;6.97;;
46355;SDS011;32066;49.474;11.106;2023-05-10T02:16:53;12.48;;;7.07;;
46355;SDS011;32066;49.474;11.106;2023-05-10T02:19:28;7.40;;;6.35;;
46355;SDS011;32066;49.474;11.106;2023-05-10T02:21:58;8.70;;;6.93;;
46355;SDS011;32066;49.474;11.106;2023-05-10T02:24:28;9.70;;;7.03;;
46355;SDS011;32066;49.474;11.106;2023-05-10T02:26:59;9.48;;;6.53;;
46355;SDS011;32066;49.474;11.106;2023-05-10T02:29:30;9.05;;;7.15;;
46355;SDS011;32066;49.474;11.106;2023-05-10T02:32:00;10.23;;;7.68;;
46355;SDS011;32066;49.474;11.106;2023-05-10T02:34:32;9.30;;;7.10;;
46355;SDS011;32066;49.474;11.106;2023-05-10T02:37:01;10.20;;;7.45;;
46355;SDS011;32066;49.474;11.106;2023-05-10T02:39:31;10.52;;;7.53;;
46355;SDS011;32066;49.474;11.106;2023-05-10T02:42:02;10.68;;;7.20;;
46355;SDS011;32066;49.474;11.106;2023-05-10T02:44:32;10.60;;;7.90;;
46355;SDS011;32066;49.474;11.106;2023-05-10T02:47:03;9.30;;;6.78;;
46355;SDS011;32066;49.474;11.106;2023-05-10T02:49:35;7.30;;;5.07;;
46355;SDS011;32066;49.474;11.106;2023-05-10T02:52:04;5.80;;;3.90;;
46355;SDS011;32066;49.474;11.106;2023-05-10T02:54:37;4.93;;;3.55;;
46355;SDS011;32066;49.474;11.106;2023-05-10T02:57:11;4.88;;;3.22;;
46355;SDS011;32066;49.474;11.106;2023-05-10T02:59:44;6.72;;;3.33;;
46355;SDS011;32066;49.474;11.106;2023-05-10T03:02:13;6.22;;;3.47;;
46355;SDS011;32066;49.474;11.106;2023-05-10T03:04:44;5.05;;;2.83;;
46355;SDS011;32066;49.474;11.106;2023-05-10T03:07:13;6.95;;;3.22;;
46355;SDS011;32066;49.474;11.106;2023-05-10T03:09:45;6.15;;;2.88;;
46355;SDS011;32066;49.474;11.106;2023-05-10T03:12:15;4.53;;;2.35;;
46355;SDS011;32066;49.474;11.106;2023-05-10T03:14:53;3.55;;;2.15;;
46355;SDS011;32066;49.474;11.106;2023-05-10T03:17:34;3.85;;;2.15;;
46355;SDS011;32066;49.474;11.106;2023-05-10T03:20:12;3.17;;;1.50;;
46355;SDS011;32066;49.474;11.106;2023-05-10T03:22:50;3.10;;;1.30;;
46355;SDS011;32066;49.474;11.106;2023-05-10T03:25:23;3.20;;;1.33;;
46355;SDS011;32066;49.474;11.106;2023-05-10T03:27:52;3.53;;;1.40;;
46355;SDS011;32066;49.474;11.106;2023-05-10T03:30:22;4.43;;;1.48;;
46355;SDS011;32066;49.474;11.106;2023-05-10T03:32:52;14.45;;;1.83;;
46355;SDS011;32066;49.474;11.106;2023-05-10T03:35:24;3.92;;;1.58;;
46355;SDS011;32066;49.474;11.106;2023-05-10T03:37:53;3.83;;;1.52;;
46355;SDS011;32066;49.474;11.106;2023-05-10T03:40:22;3.40;;;1.40;;
46355;SDS011;32066;49.474;11.106;2023-05-10T03:42:51;4.13;;;1.55;;
46355;SDS011;32066;49.474;11.106;2023-05-10T03:45:20;3.88;;;1.75;;
46355;SDS011;32066;49.474;11.106;2023-05-10T03:47:48;3.97;;;1.60;;
46355;SDS011;32066;49.474;11.106;2023-05-10T03:50:17;2.80;;;1.30;;
46355;SDS011;32066;49.474;11.106;2023-05-10T03:52:49;3.85;;;1.30;;
46355;SDS011;32066;49.474;11.106;2023-05-10T03:55:18;3.47;;;1.45;;
46355;SDS011;32066;49.474;11.106;2023-05-10T03:57:48;3.08;;;1.10;;
46355;SDS011;32066;49.474;11.106;2023-05-10T04:00:20;4.03;;;1.35;;
46355;SDS011;32066;49.474;11.106;2023-05-10T04:02:52;3.40;;;1.17;;
46355;SDS011;32066;49.474;11.106;2023-05-10T04:05:22;2.92;;;1.20;;
46355;SDS011;32066;49.474;11.106;2023-05-10T04:07:54;3.47;;;1.13;;
46355;SDS011;32066;49.474;11.106;2023-05-10T04:10:23;3.55;;;1.20;;
46355;SDS011;32066;49.474;11.106;2023-05-10T04:12:51;2.65;;;1.00;;
46355;SDS011;32066;49.474;11.106;2023-05-10T04:15:20;3.00;;;0.98;;
46355;SDS011;32066;49.474;11.106;2023-05-10T04:17:49;3.92;;;1.30;;
46355;SDS011;32066;49.474;11.106;2023-05-10T04:20:18;3.40;;;0.90;;
46355;SDS011;32066;49.474;11.106;2023-05-10T04:22:47;3.60;;;1.10;;
46355;SDS011;32066;49.474;11.106;2023-05-10T04:25:18;3.25;;;1.00;;
46355;SDS011;32066;49.474;11.106;2023-05-10T04:27:47;2.30;;;0.90;;
46355;SDS011;32066;49.474;11.106;2023-05-10T04:30:16;2.72;;;0.80;;
46355;SDS011;32066;49.474;11.106;2023-05-10T04:32:45;3.28;;;1.10;;
46355;SDS011;32066;49.474;11.106;2023-05-10T04:35:13;3.15;;;1.05;;
46355;SDS011;32066;49.474;11.106;2023-05-10T04:37:42;3.65;;;0.93;;
46355;SDS011;32066;49.474;11.106;2023-05-10T04:40:11;3.17;;;1.00;;
46355;SDS011;32066;49.474;11.106;2023-05-10T04:42:43;2.47;;;0.90;;
46355;SDS011;32066;49.474;11.106;2023-05-10T04:45:12;3.58;;;1.00;;
46355;SDS011;32066;49.474;11.106;2023-05-10T04:47:41;3.33;;;1.00;;
46355;SDS011;32066;49.474;11.106;2023-05-10T04:50:10;3.33;;;1.00;;
46355;SDS011;32066;49.474;11.106;2023-05-10T04:52:38;3.17;;;1.17;;
46355;SDS011;32066;49.474;11.106;2023-05-10T04:55:07;2.80;;;1.00;;
46355;SDS011;32066;49.474;11.106;2023-05-10T04:57:36;4.43;;;0.80;;
46355;SDS011;32066;49.474;11.106;2023-05-10T05:00:08;3.63;;;1.25;;
46355;SDS011;32066;49.474;11.106;2023-05-10T05:02:37;3.15;;;0.95;;
46355;SDS011;32066;49.474;11.106;2023-05-10T05:05:06;3.17;;;1.00;;
46355;SDS011;32066;49.474;11.106;2023-05-10T05:07:35;3.15;;;1.13;;
46355;SDS011;32066;49.474;11.106;2023-05-10T05:10:05;3.88;;;1.15;;
46355;SDS011;32066;49.474;11.106;2023-05-10T05:12:34;3.25;;;0.98;;
46355;SDS011;32066;49.474;11.106;2023-05-10T05:15:03;2.95;;;0.90;;
46355;SDS011;32066;49.474;11.106;2023-05-10T05:17:36;2.88;;;0.93;;
46355;SDS011;32066;49.474;11.106;2023-05-10T05:20:05;2.38;;;0.82;;
46355;SDS011;32066;49.474;11.106;2023-05-10T05:22:35;2.42;;;0.90;;
46355;SDS011;32066;49.474;11.106;2023-05-10T05:25:04;2.85;;;0.75;;
46355;SDS011;32066;49.474;11.106;2023-05-10T05:27:33;3.20;;;0.70;;
46355;SDS011;32066;49.474;11.106;2023-05-10T05:30:03;2.47;;;0.77;;
46355;SDS011;32066;49.474;11.106;2023-05-10T05:32:32;2.70;;;0.80;;
46355;SDS011;32066;49.474;11.106;2023-05-10T05:35:04;2.97;;;0.90;;
46355;SDS011;32066;49.474;11.106;2023-05-10T05:37:33;2.55;;;0.77;;
46355;SDS011;32066;49.474;11.106;2023-05-10T05:40:02;3.15;;;0.80;;
46355;SDS011;32066;49.474;11.106;2023-05-10T05:42:31;2.28;;;0.82;;
46355;SDS011;32066;49.474;11.106;2023-05-10T05:45:00;2.97;;;0.98;;
46355;SDS011;32066;49.474;11.106;2023-05-10T05:47:29;4.30;;;1.15;;
46355;SDS011;32066;49.474;11.106;2023-05-10T05:49:57;2.95;;;1.08;;
46355;SDS011;32066;49.474;11.106;2023-05-10T05:52:28;2.83;;;1.10;;
46355;SDS011;32066;49.474;11.106;2023-05-10T05:54:58;3.15;;;1.30;;
46355;SDS011;32066;49.474;11.106;2023-05-10T05:57:27;3.45;;;1.20;;
46355;SDS011;32066;49.474;11.106;2023-05-10T05:59:55;5.53;;;1.13;;
46355;SDS011;32066;49.474;11.106;2023-05-10T06:02:24;2.80;;;1.00;;
46355;SDS011;32066;49.474;11.106;2023-05-10T06:04:53;3.85;;;1.15;;
46355;SDS011;32066;49.474;11.106;2023-05-10T06:07:21;4.78;;;1.50;;
46355;SDS011;32066;49.474;11.106;2023-05-10T06:09:53;2.95;;;1.20;;
46355;SDS011;32066;49.474;11.106;2023-05-10T06:12:21;4.40;;;1.38;;
46355;SDS011;32066;49.474;11.106;2023-05-10T06:14:50;3.05;;;1.27;;
46355;SDS011;32066;49.474;11.106;2023-05-10T06:17:19;3.83;;;1.20;;
46355;SDS011;32066;49.474;11.106;2023-05-10T06:19:47;4.57;;;1.27;;
46355;SDS011;32066;49.474;11.106;2023-05-10T06:22:16;4.93;;;1.35;;
46355;SDS011;32066;49.474;11.106;2023-05-10T06:24:44;3.15;;;1.20;;
46355;SDS011;32066;49.474;11.106;2023-05-10T06:27:16;4.75;;;1.30;;
46355;SDS011;32066;49.474;11.106;2023-05-10T06:29:44;3.47;;;1.40;;
46355;SDS011;32066;49.474;11.106;2023-05-10T06:32:13;3.65;;;1.38;;
46355;SDS011;32066;49.474;11.106;2023-05-10T06:34:42;4.82;;;1.30;;
46355;SDS011;32066;49.474;11.106;2023-05-10T06:37:11;2.92;;;1.20;;
46355;SDS011;32066;49.474;11.106;2023-05-10T06:39:40;3.58;;;1.52;;
46355;SDS011;32066;49.474;11.106;2023-05-10T06:42:08;5.70;;;1.40;;
46355;SDS011;32066;49.474;11.106;2023-05-10T06:44:40;4.60;;;1.50;;
46355;SDS011;32066;49.474;11.106;2023-05-10T06:47:08;3.00;;;1.30;;
46355;SDS011;32066;49.474;11.106;2023-05-10T06:49:37;5.93;;;1.38;;
46355;SDS011;32066;49.474;11.106;2023-05-10T06:52:05;5.70;;;1.42;;
46355;SDS011;32066;49.474;11.106;2023-05-10T06:54:34;5.60;;;1.25;;
46355;SDS011;32066;49.474;11.106;2023-05-10T06:57:03;3.83;;;1.38;;
46355;SDS011;32066;49.474;11.106;2023-05-10T06:59:31;3.85;;;1.33;;
46355;SDS011;32066;49.474;11.106;2023-05-10T07:02:04;3.25;;;1.40;;
46355;SDS011;32066;49.474;11.106;2023-05-10T07:04:33;3.85;;;1.20;;
46355;SDS011;32066;49.474;11.106;2023-05-10T07:07:02;3.33;;;1.17;;
46355;SDS011;32066;49.474;11.106;2023-05-10T07:09:30;2.95;;;1.20;;
46355;SDS011;32066;49.474;11.106;2023-05-10T07:11:59;3.30;;;1.25;;
46355;SDS011;32066;49.474;11.106;2023-05-10T07:14:28;4.38;;;1.23;;
46355;SDS011;32066;49.474;11.106;2023-05-10T07:16:56;3.47;;;1.20;;
46355;SDS011;32066;49.474;11.106;2023-05-10T07:19:27;4.35;;;1.27;;
46355;SDS011;32066;49.474;11.106;2023-05-10T07:21:57;6.68;;;1.20;;
46355;SDS011;32066;49.474;11.106;2023-05-10T07:24:26;3.42;;;1.30;;
46355;SDS011;32066;49.474;11.106;2023-05-10T07:26:56;2.35;;;0.90;;
46355;SDS011;32066;49.474;11.106;2023-05-10T07:29:25;3.05;;;1.17;;
46355;SDS011;32066;49.474;11.106;2023-05-10T07:31:54;3.58;;;1.20;;
46355;SDS011;32066;49.474;11.106;2023-05-10T07:34:22;2.70;;;1.10;;
46355;SDS011;32066;49.474;11.106;2023-05-10T07:36:53;3.58;;;1.13;;
46355;SDS011;32066;49.474;11.106;2023-05-10T07:39:22;4.25;;;1.17;;
46355;SDS011;32066;49.474;11.106;2023-05-10T07:41:51;5.35;;;1.15;;
46355;SDS011;32066;49.474;11.106;2023-05-10T07:44:19;4.15;;;1.13;;
46355;SDS011;32066;49.474;11.106;2023-05-10T07:46:48;4.30;;;1.00;;
46355;SDS011;32066;49.474;11.106;2023-05-10T07:49:17;4.45;;;1.30;;
46355;SDS011;32066;49.474;11.106;2023-05-10T07:51:45;4.50;;;1.25;;
46355;SDS011;32066;49.474;11.106;2023-05-10T07:54:17;3.50;;;1.20;;
46355;SDS011;32066;49.474;11.106;2023-05-10T07:56:45;3.42;;;1.15;;
46355;SDS011;32066;49.474;11.106;2023-05-10T07:59:14;4.57;;;1.25;;
46355;SDS011;32066;49.474;11.106;2023-05-10T08:01:44;2.80;;;1.30;;
46355;SDS011;32066;49.474;11.106;2023-05-10T08:04:13;3.45;;;1.10;;
46355;SDS011;32066;49.474;11.106;2023-05-10T08:06:41;3.00;;;1.33;;
46355;SDS011;32066;49.474;11.106;2023-05-10T08:09:10;4.32;;;1.30;;
46355;SDS011;32066;49.474;11.106;2023-05-10T08:11:41;5.50;;;1.40;;
46355;SDS011;32066;49.474;11.106;2023-05-10T08:14:10;3.20;;;1.20;;
46355;SDS011;32066;49.474;11.106;2023-05-10T08:16:38;4.53;;;1.20;;
46355;SDS011;32066;49.474;11.106;2023-05-10T08:19:07;3.63;;;1.30;;
46355;SDS011;32066;49.474;11.106;2023-05-10T08:21:36;3.55;;;1.50;;
46355;SDS011;32066;49.474;11.106;2023-05-10T08:24:05;2.83;;;1.33;;
46355;SDS011;32066;49.474;11.106;2023-05-10T08:26:37;4.15;;;1.30;;
46355;SDS011;32066;49.474;11.106;2023-05-10T08:29:08;2.70;;;1.10;;
46355;SDS011;32066;49.474;11.106;2023-05-10T08:31:37;3.88;;;1.40;;
46355;SDS011;32066;49.474;11.106;2023-05-10T08:34:06;3.83;;;1.55;;
46355;SDS011;32066;49.474;11.106;2023-05-10T08:36:34;3.38;;;1.50;;
46355;SDS011;32066;49.474;11.106;2023-05-10T08:39:03;4.40;;;1.38;;
46355;SDS011;32066;49.474;11.106;2023-05-10T08:41:33;3.88;;;1.30;;
46355;SDS011;32066;49.474;11.106;2023-05-10T08:44:05;4.90;;;1.30;;
46355;SDS011;32066;49.474;11.106;2023-05-10T08:46:36;4.15;;;1.40;;
46355;SDS011;32066;49.474;11.106;2023-05-10T08:49:09;5.63;;;1.55;;
46355;SDS011;32066;49.474;11.106;2023-05-10T08:51:41;4.30;;;1.48;;
46355;SDS011;32066;49.474;11.106;2023-05-10T08:54:16;2.97;;;1.37;;
46355;SDS011;32066;49.474;11.106;2023-05-10T08:56:44;6.18;;;1.45;;
46355;SDS011;32066;49.474;11.106;2023-05-10T08:59:16;3.92;;;1.30;;
46355;SDS011;32066;49.474;11.106;2023-05-10T09:01:46;2.97;;;1.35;;
46355;SDS011;32066;49.474;11.106;2023-05-10T09:04:16;3.90;;;1.20;;
46355;SDS011;32066;49.474;11.106;2023-05-10T09:06:44;3.05;;;1.50;;
46355;SDS011;32066;49.474;11.106;2023-05-10T09:09:13;3.40;;;1.45;;
46355;SDS011;32066;49.474;11.106;2023-05-10T09:11:42;4.03;;;1.50;;
46355;SDS011;32066;49.474;11.106;2023-05-10T09:14:12;5.28;;;1.60;;
46355;SDS011;32066;49.474;11.106;2023-05-10T09:16:43;3.63;;;1.45;;
46355;SDS011;32066;49.474;11.106;2023-05-10T09:19:12;6.38;;;1.50;;
46355;SDS011;32066;49.474;11.106;2023-05-10T09:21:41;3.70;;;1.38;;
46355;SDS011;32066;49.474;11.106;2023-05-10T09:24:10;4.60;;;1.40;;
46355;SDS011;32066;49.474;11.106;2023-05-10T09:26:45;5.47;;;1.60;;
46355;SDS011;32066;49.474;11.106;2023-05-10T09:29:15;5.18;;;1.75;;
46355;SDS011;32066;49.474;11.106;2023-05-10T09:31:47;5.00;;;1.90;;
46355;SDS011;32066;49.474;11.106;2023-05-10T09:34:20;4.70;;;2.10;;
46355;SDS011;32066;49.474;11.106;2023-05-10T09:36:57;5.15;;;1.95;;
46355;SDS011;32066;49.474;11.106;2023-05-10T09:39:33;6.13;;;2.15;;
46355;SDS011;32066;49.474;11.106;2023-05-10T09:42:03;5.28;;;2.20;;
46355;SDS011;32066;49.474;11.106;2023-05-10T09:44:33;4.00;;;1.77;;
46355;SDS011;32066;49.474;11.106;2023-05-10T09:47:05;5.00;;;2.67;;
46355;SDS011;32066;49.474;11.106;2023-05-10T09:49:34;3.70;;;1.90;;
46355;SDS011;32066;49.474;11.106;2023-05-10T09:52:03;5.63;;;2.08;;
46355;SDS011;32066;49.474;11.106;2023-05-10T09:54:33;5.55;;;2.40;;
46355;SDS011;32066;49.474;11.106;2023-05-10T09:57:02;4.20;;;2.00;;
46355;SDS011;32066;49.474;11.106;2023-05-10T09:59:32;4.47;;;2.30;;
46355;SDS011;32066;49.474;11.106;2023-05-10T10:02:01;4.75;;;2.08;;
46355;SDS011;32066;49.474;11.106;2023-05-10T10:04:37;5.13;;;2.20;;
46355;SDS011;32066;49.474;11.106;2023-05-10T10:07:07;5.43;;;1.65;;
46355;SDS011;32066;49.474;11.106;2023-05-10T10:09:36;4.90;;;2.03;;
46355;SDS011;32066;49.474;11.106;2023-05-10T10:12:05;4.43;;;1.90;;
46355;SDS011;32066;49.474;11.106;2023-05-10T10:14:34;4.95;;;1.80;;
46355;SDS011;32066;49.474;11.106;2023-05-10T10:17:02;4.47;;;1.95;;
46355;SDS011;32066;49.474;11.106;2023-05-10T10:19:35;4.43;;;2.08;;
46355;SDS011;32066;49.474;11.106;2023-05-10T10:22:04;5.45;;;1.60;;
46355;SDS011;32066;49.474;11.106;2023-05-10T10:24:33;4.68;;;1.40;;
46355;SDS011;32066;49.474;11.106;2023-05-10T10:27:04;3.50;;;1.60;;
46355;SDS011;32066;49.474;11.106;2023-05-10T10:29:41;3.33;;;1.35;;
46355;SDS011;32066;49.474;11.106;2023-05-10T10:32:19;3.63;;;1.25;;
46355;SDS011;32066;49.474;11.106;2023-05-10T10:34:59;4.15;;;1.42;;
46355;SDS011;32066;49.474;11.106;2023-05-10T10:37:40;2.90;;;1.30;;
46355;SDS011;32066;49.474;11.106;2023-05-10T10:40:22;5.45;;;1.60;;
46355;SDS011;32066;49.474;11.106;2023-05-10T10:42:51;3.90;;;1.17;;
46355;SDS011;32066;49.474;11.106;2023-05-10T10:45:21;3.47;;;1.25;;
46355;SDS011;32066;49.474;11.106;2023-05-10T10:53:26;4.47;;;1.35;;
46355;SDS011;32066;49.474;11.106;2023-05-10T10:56:02;4.30;;;1.48;;
46355;SDS011;32066;49.474;11.106;2023-05-10T10:58:35;4.90;;;1.63;;
46355;SDS011;32066;49.474;11.106;2023-05-10T11:01:13;5.13;;;1.40;;
46355;SDS011;32066;49.474;11.106;2023-05-10T11:03:55;4.35;;;1.48;;
46355;SDS011;32066;49.474;11.106;2023-05-10T11:06:48;4.82;;;1.40;;
46355;SDS011;32066;49.474;11.106;2023-05-10T11:09:17;4.60;;;1.35;;
46355;SDS011;32066;49.474;11.106;2023-05-10T11:11:50;4.50;;;1.75;;
46355;SDS011;32066;49.474;11.106;2023-05-10T11:14:20;6.93;;;1.90;;
46355;SDS011;32066;49.474;11.106;2023-05-10T11:16:50;5.80;;;1.50;;
46355;SDS011;32066;49.474;11.106;2023-05-10T11:19:18;4.13;;;1.73;;
46355;SDS011;32066;49.474;11.106;2023-05-10T11:21:50;4.15;;;1.50;;
46355;SDS011;32066;49.474;11.106;2023-05-10T11:24:39;3.70;;;1.70;;
46355;SDS011;32066;49.474;11.106;2023-05-10T11:27:07;10.77;;;2.20;;
46355;SDS011;32066;49.474;11.106;2023-05-10T11:29:36;4.88;;;1.55;;
46355;SDS011;32066;49.474;11.106;2023-05-10T11:32:05;3.88;;;1.75;;
46355;SDS011;32066;49.474;11.106;2023-05-10T11:34:34;4.15;;;2.25;;
46355;SDS011;32066;49.474;11.106;2023-05-10T11:37:05;3.78;;;1.52;;
46355;SDS011;32066;49.474;11.106;2023-05-10T11:39:34;3.78;;;1.83;;
46355;SDS011;32066;49.474;11.106;2023-05-10T11:42:02;4.55;;;1.52;;
46355;SDS011;32066;49.474;11.106;2023-05-10T11:44:34;4.63;;;1.70;;
46355;SDS011;32066;49.474;11.106;2023-05-10T11:47:03;3.63;;;1.60;;
46355;SDS011;32066;49.474;11.106;2023-05-10T11:49:32;3.53;;;1.30;;
46355;SDS011;32066;49.474;11.106;2023-05-10T11:52:07;4.80;;;1.42;;
46355;SDS011;32066;49.474;11.106;2023-05-10T11:54:36;5.28;;;1.40;;
46355;SDS011;32066;49.474;11.106;2023-05-10T11:57:05;4.65;;;1.50;;
46355;SDS011;32066;49.474;11.106;2023-05-10T11:59:34;4.45;;;1.48;;
46355;SDS011;32066;49.474;11.106;2023-05-10T12:02:02;5.30;;;1.63;;
46355;SDS011;32066;49.474;11.106;2023-05-10T12:04:31;2.83;;;1.17;;
46355;SDS011;32066;49.474;11.106;2023-05-10T12:07:00;3.75;;;1.40;;
46355;SDS011;32066;49.474;11.106;2023-05-10T12:09:31;3.10;;;1.50;;
46355;SDS011;32066;49.474;11.106;2023-05-10T12:12:00;5.07;;;1.40;;
46355;SDS011;32066;49.474;11.106;2023-05-10T12:14:33;5.70;;;1.40;;
46355;SDS011;32066;49.474;11.106;2023-05-10T12:17:02;3.97;;;1.83;;
46355;SDS011;32066;49.474;11.106;2023-05-10T12:19:36;4.30;;;1.80;;
46355;SDS011;32066;49.474;11.106;2023-05-10T12:22:05;4.43;;;1.73;;
46355;SDS011;32066;49.474;11.106;2023-05-10T12:24:37;4.07;;;1.60;;
46355;SDS011;32066;49.474;11.106;2023-05-10T12:27:05;4.53;;;1.83;;
46355;SDS011;32066;49.474;11.106;2023-05-10T12:29:37;4.53;;;1.75;;
46355;SDS011;32066;49.474;11.106;2023-05-10T12:32:10;3.78;;;1.58;;
46355;SDS011;32066;49.474;11.106;2023-05-10T12:34:39;4.45;;;1.48;;
46355;SDS011;32066;49.474;11.106;2023-05-10T12:37:07;3.38;;;1.30;;
46355;SDS011;32066;49.474;11.106;2023-05-10T12:39:42;4.90;;;1.23;;
46355;SDS011;32066;49.474;11.106;2023-05-10T12:44:40;4.82;;;1.83;;
46355;SDS011;32066;49.474;11.106;2023-05-10T12:47:09;3.00;;;1.20;;
46355;SDS011;32066;49.474;11.106;2023-05-10T12:49:37;3.53;;;1.38;;
46355;SDS011;32066;49.474;11.106;2023-05-10T12:52:06;4.38;;;1.42;;
46355;SDS011;32066;49.474;11.106;2023-05-10T12:54:35;4.35;;;1.50;;
46355;SDS011;32066;49.474;11.106;2023-05-10T12:57:06;5.50;;;1.50;;
46355;SDS011;32066;49.474;11.106;2023-05-10T12:59:35;6.22;;;1.70;;
46355;SDS011;32066;49.474;11.106;2023-05-10T13:02:04;3.40;;;1.30;;
46355;SDS011;32066;49.474;11.106;2023-05-10T13:04:33;3.15;;;1.38;;
46355;SDS011;32066;49.474;11.106;2023-05-10T13:07:04;3.90;;;1.10;;
46355;SDS011;32066;49.474;11.106;2023-05-10T13:09:33;3.38;;;1.30;;
46355;SDS011;32066;49.474;11.106;2023-05-10T13:12:02;3.30;;;1.33;;
46355;SDS011;32066;49.474;11.106;2023-05-10T13:14:33;4.32;;;1.40;;
46355;SDS011;32066;49.474;11.106;2023-05-10T13:17:02;3.55;;;1.27;;
46355;SDS011;32066;49.474;11.106;2023-05-10T13:19:31;3.10;;;1.38;;
46355;SDS011;32066;49.474;11.106;2023-05-10T13:21:59;4.55;;;1.40;;
46355;SDS011;32066;49.474;11.106;2023-05-10T13:24:28;3.33;;;1.10;;
46355;SDS011;32066;49.474;11.106;2023-05-10T13:26:56;4.50;;;1.75;;
46355;SDS011;32066;49.474;11.106;2023-05-10T13:29:25;2.78;;;0.90;;
46355;SDS011;32066;49.474;11.106;2023-05-10T13:31:56;1.70;;;0.70;;
46355;SDS011;32066;49.474;11.106;2023-05-10T13:34:25;2.85;;;0.80;;
46355;SDS011;32066;49.474;11.106;2023-05-10T13:36:54;3.75;;;0.98;;
46355;SDS011;32066;49.474;11.106;2023-05-10T13:39:23;4.72;;;1.10;;
46355;SDS011;32066;49.474;11.106;2023-05-10T13:41:52;3.47;;;1.30;;
46355;SDS011;32066;49.474;11.106;2023-05-10T13:44:20;2.90;;;1.23;;
46355;SDS011;32066;49.474;11.106;2023-05-10T13:46:49;3.33;;;1.10;;
46355;SDS011;32066;49.474;11.106;2023-05-10T13:49:20;4.25;;;1.35;;
46355;SDS011;32066;49.474;11.106;2023-05-10T13:51:49;3.83;;;1.48;;
46355;SDS011;32066;49.474;11.106;2023-05-10T13:54:17;3.60;;;1.38;;
46355;SDS011;32066;49.474;11.106;2023-05-10T13:56:47;4.72;;;1.63;;
46355;SDS011;32066;49.474;11.106;2023-05-10T13:59:16;6.50;;;1.60;;
46355;SDS011;32066;49.474;11.106;2023-05-10T14:01:44;4.65;;;1.60;;
46355;SDS011;32066;49.474;11.106;2023-05-10T14:04:13;4.40;;;1.60;;
46355;SDS011;32066;49.474;11.106;2023-05-10T14:06:44;3.05;;;1.30;;
46355;SDS011;32066;49.474;11.106;2023-05-10T14:09:13;4.80;;;1.52;;
46355;SDS011;32066;49.474;11.106;2023-05-10T14:11:42;4.32;;;1.33;;
46355;SDS011;32066;49.474;11.106;2023-05-10T14:14:10;4.00;;;1.27;;
46355;SDS011;32066;49.474;11.106;2023-05-10T14:16:41;4.78;;;1.40;;
46355;SDS011;32066;49.474;11.106;2023-05-10T14:19:10;3.97;;;1.60;;
46355;SDS011;32066;49.474;11.106;2023-05-10T14:21:39;4.28;;;1.40;;
46355;SDS011;32066;49.474;11.106;2023-05-10T14:24:10;5.55;;;1.58;;
46355;SDS011;32066;49.474;11.106;2023-05-10T14:26:39;5.32;;;1.85;;
46355;SDS011;32066;49.474;11.106;2023-05-10T14:29:08;5.22;;;1.50;;
46355;SDS011;32066;49.474;11.106;2023-05-10T14:31:36;3.47;;;1.45;;
46355;SDS011;32066;49.474;11.106;2023-05-10T14:34:05;4.57;;;1.55;;
46355;SDS011;32066;49.474;11.106;2023-05-10T14:36:33;3.13;;;1.33;;
46355;SDS011;32066;49.474;11.106;2023-05-10T14:39:02;3.65;;;1.35;;
46355;SDS011;32066;49.474;11.106;2023-05-10T14:41:34;5.38;;;1.65;;
46355;SDS011;32066;49.474;11.106;2023-05-10T14:44:04;3.20;;;1.55;;
46355;SDS011;32066;49.474;11.106;2023-05-10T14:46:32;4.60;;;1.60;;
46355;SDS011;32066;49.474;11.106;2023-05-10T14:49:01;4.90;;;1.42;;
46355;SDS011;32066;49.474;11.106;2023-05-10T14:51:30;3.58;;;1.25;;
46355;SDS011;32066;49.474;11.106;2023-05-10T14:53:58;2.80;;;1.00;;
46355;SDS011;32066;49.474;11.106;2023-05-10T14:56:27;5.22;;;1.30;;
46355;SDS011;32066;49.474;11.106;2023-05-10T14:58:58;4.07;;;1.10;;
46355;SDS011;32066;49.474;11.106;2023-05-10T15:01:29;3.35;;;1.10;;
46355;SDS011;32066;49.474;11.106;2023-05-10T15:03:58;2.75;;;1.10;;